Time;durP1;ratioP1;P1;durP2;ratioP2;P2;SDS_P1;SDS_P2;PMS_P1;PMS_P2;Temp;Humidity;BMP_temperature;BMP_pressure;BME280_temperature;BME280_humidity;BME280_pressure;Samples;Min_cycle;Max_cycle;Signal;HPM_P1;HPM_P2
2022/09/06 00:04:37;;;;;;;2.22;1.50;;;23.40;52.00;;;;;;20544229;28;20126;-74
2022/09/06 00:14:38;;;;;;;1.25;1.13;;;23.40;52.00;;;;;;20556954;28;20039;-73
2022/09/06 00:24:38;;;;;;;2.00;1.55;;;23.40;52.00;;;;;;20576670;28;20041;-75
2022/09/06 00:34:39;;;;;;;2.38;1.58;;;23.40;52.10;;;;;;20483437;28;20118;-74
2022/09/06 00:44:40;;;;;;;1.98;1.33;;;23.40;52.10;;;;;;20481945;28;20042;-74
2022/09/06 00:54:40;;;;;;;2.63;1.50;;;23.40;52.10;;;;;;20477302;29;20500;-73
2022/09/06 01:04:41;;;;;;;1.58;1.10;;;23.40;52.00;;;;;;20461644;29;20039;-73
2022/09/06 01:15:00;;;;;;;1.85;1.67;;;23.40;52.10;;;;;;20460965;29;20047;-74
2022/09/06 01:35:33;;;;;;;2.08;1.65;;;23.40;52.50;;;;;;20673158;23;20043;-73
2022/09/06 01:46:15;;;;;;;1.10;1.00;;;23.40;52.00;;;;;;20505752;28;20102;-73
2022/09/06 01:56:53;;;;;;;1.92;1.60;;;23.40;52.00;;;;;;20462085;29;20055;-74
2022/09/06 02:07:02;;;;;;;1.50;1.10;;;23.40;52.00;;;;;;20505796;28;20031;-71
2022/09/06 02:17:03;;;;;;;3.00;1.90;;;23.40;52.00;;;;;;20496328;28;20118;-72
2022/09/06 02:27:03;;;;;;;2.13;1.25;;;23.40;51.90;;;;;;20558012;28;20731;-72
2022/09/06 02:37:04;;;;;;;2.10;1.60;;;23.40;52.00;;;;;;20534614;28;20061;-72
2022/09/06 02:47:05;;;;;;;3.30;1.58;;;23.40;51.90;;;;;;20533009;28;20130;-74
2022/09/06 02:57:05;;;;;;;2.05;1.60;;;23.40;51.90;;;;;;20546873;28;20081;-74
2022/09/06 03:07:06;;;;;;;2.17;1.45;;;23.40;51.90;;;;;;20553547;28;20053;-75
2022/09/06 03:17:07;;;;;;;1.63;1.27;;;23.30;51.80;;;;;;20547411;28;20046;-75
2022/09/06 03:27:07;;;;;;;1.30;1.00;;;23.30;51.80;;;;;;20562503;28;20046;-74
2022/09/06 03:37:08;;;;;;;2.83;1.65;;;23.30;51.80;;;;;;20545197;28;20166;-73
2022/09/06 03:47:08;;;;;;;1.63;1.25;;;23.30;51.80;;;;;;20545260;28;20106;-71
2022/09/06 03:57:09;;;;;;;2.10;1.50;;;23.30;51.80;;;;;;20576720;28;20031;-71
2022/09/06 04:07:10;;;;;;;2.35;1.02;;;23.30;51.80;;;;;;20551388;28;20129;-73
2022/09/06 04:17:13;;;;;;;1.53;1.33;;;23.30;51.70;;;;;;20529366;28;20146;-76
2022/09/06 04:27:14;;;;;;;2.85;1.80;;;23.30;51.70;;;;;;20505376;28;20294;-74
2022/09/06 04:37:18;;;;;;;2.03;1.48;;;23.30;51.70;;;;;;20483658;29;20031;-73
2022/09/06 04:47:22;;;;;;;2.58;1.38;;;23.30;51.60;;;;;;20488552;28;20030;-73
2022/09/06 04:57:23;;;;;;;1.92;1.33;;;23.30;51.40;;;;;;20532174;28;20043;-73
2022/09/06 05:07:23;;;;;;;1.48;1.30;;;23.30;51.20;;;;;;20543809;28;20038;-72
2022/09/06 05:17:24;;;;;;;1.63;1.17;;;23.40;51.00;;;;;;20542960;28;20067;-73
2022/09/06 05:27:24;;;;;;;4.00;1.40;;;23.40;50.80;;;;;;20544225;28;20039;-71
2022/09/06 05:37:25;;;;;;;1.90;1.38;;;23.40;50.50;;;;;;20492302;29;20094;-73
2022/09/06 05:47:30;;;;;;;1.67;1.20;;;23.40;50.40;;;;;;20477857;29;20114;-71
2022/09/06 05:57:30;;;;;;;1.95;1.27;;;23.40;50.20;;;;;;20522857;28;20039;-71
2022/09/06 06:07:31;;;;;;;2.53;1.07;;;23.40;50.10;;;;;;20516670;28;20046;-71
2022/09/06 06:17:31;;;;;;;1.42;1.00;;;23.40;50.00;;;;;;20555617;28;20301;-74
2022/09/06 06:27:33;;;;;;;1.80;1.00;;;23.30;49.90;;;;;;20501179;28;20046;-72
2022/09/06 06:37:34;;;;;;;3.08;1.27;;;23.30;49.80;;;;;;20488497;28;20043;-74
2022/09/06 06:47:34;;;;;;;1.88;0.85;;;23.30;49.70;;;;;;20472886;28;20042;-71
2022/09/06 06:57:35;;;;;;;2.20;1.83;;;23.30;49.60;;;;;;20546938;28;20520;-73
2022/09/06 07:07:35;;;;;;;1.48;1.20;;;23.30;49.40;;;;;;20536193;28;20069;-72
2022/09/06 07:17:36;;;;;;;1.73;0.85;;;23.30;49.30;;;;;;20550181;28;20221;-71
2022/09/06 07:27:37;;;;;;;1.60;1.05;;;23.30;49.10;;;;;;20544127;28;20038;-73
2022/09/06 07:37:37;;;;;;;1.73;0.85;;;23.40;49.00;;;;;;20566221;28;20049;-72
2022/09/06 07:47:38;;;;;;;2.03;0.90;;;23.40;48.80;;;;;;20566481;28;20107;-75
2022/09/06 07:57:38;;;;;;;1.13;0.63;;;23.40;48.70;;;;;;20563030;28;20039;-73
2022/09/06 08:07:39;;;;;;;1.40;0.80;;;23.40;48.50;;;;;;20547080;28;20027;-72
2022/09/06 08:17:39;;;;;;;1.20;0.68;;;23.50;48.30;;;;;;20532356;28;20093;-72
2022/09/06 08:27:40;;;;;;;1.42;0.70;;;23.40;48.20;;;;;;20532346;28;20440;-72
2022/09/06 08:37:41;;;;;;;2.13;1.00;;;23.40;48.20;;;;;;20547282;28;20074;-72
2022/09/06 08:47:41;;;;;;;0.93;0.75;;;23.40;48.10;;;;;;20579448;28;20309;-74
2022/09/06 08:58:09;;;;;;;1.63;0.70;;;23.40;48.10;;;;;;20551500;28;20042;-74
2022/09/06 09:08:38;;;;;;;1.55;0.70;;;23.40;48.10;;;;;;20578255;28;20571;-74
2022/09/06 09:18:40;;;;;;;2.67;0.98;;;23.40;48.00;;;;;;20580978;28;20042;-72
2022/09/06 09:29:01;;;;;;;2.15;0.80;;;23.40;48.10;;;;;;20575128;28;20102;-72
2022/09/06 09:39:07;;;;;;;1.15;0.80;;;23.40;48.00;;;;;;20558284;28;20042;-73
2022/09/06 09:49:12;;;;;;;2.33;0.82;;;23.40;48.00;;;;;;20542284;28;20043;-72
2022/09/06 09:59:20;;;;;;;2.67;0.70;;;23.40;48.00;;;;;;20573000;28;20074;-71
2022/09/06 10:09:30;;;;;;;2.42;1.17;;;23.40;47.70;;;;;;20555533;28;20061;-71
2022/09/06 10:19:36;;;;;;;1.45;0.90;;;23.40;47.60;;;;;;20536714;28;20035;-72
2022/09/06 10:29:51;;;;;;;2.65;1.00;;;23.30;47.60;;;;;;20578112;28;20053;-70
2022/09/06 10:40:03;;;;;;;1.35;0.80;;;23.40;47.60;;;;;;20538798;28;20039;-72
2022/09/06 10:50:04;;;;;;;2.30;0.80;;;23.30;47.70;;;;;;20554881;28;20133;-72
2022/09/06 11:00:13;;;;;;;1.15;0.52;;;23.40;47.80;;;;;;20583371;28;20043;-71
2022/09/06 11:10:23;;;;;;;3.67;1.00;;;23.30;47.70;;;;;;20535821;28;20041;-72
2022/09/06 11:20:28;;;;;;;2.67;0.55;;;23.30;47.70;;;;;;20497849;28;20035;-73
2022/09/06 11:30:30;;;;;;;1.77;0.87;;;23.30;47.70;;;;;;20520560;28;20035;-76
2022/09/06 11:40:40;;;;;;;1.20;0.73;;;23.30;47.70;;;;;;20566632;28;20058;-72
2022/09/06 11:50:52;;;;;;;1.25;0.77;;;23.30;47.70;;;;;;20562884;28;20125;-76
2022/09/06 12:01:12;;;;;;;3.70;0.77;;;23.30;47.70;;;;;;20580925;28;20039;-73
2022/09/06 12:11:43;;;;;;;1.05;0.85;;;23.30;47.80;;;;;;20574666;28;20441;-72
2022/09/06 12:21:46;;;;;;;1.83;0.93;;;23.40;47.80;;;;;;20578844;28;20038;-74
2022/09/06 12:31:53;;;;;;;2.42;0.90;;;23.40;47.90;;;;;;20508948;28;20082;-72
2022/09/06 12:42:03;;;;;;;1.75;0.95;;;23.40;47.90;;;;;;20557167;28;20054;-71
2022/09/06 12:52:11;;;;;;;1.67;0.82;;;23.40;48.00;;;;;;20561371;28;20038;-74
2022/09/06 13:02:14;;;;;;;1.55;0.85;;;23.40;48.10;;;;;;20544795;28;20037;-79
2022/09/06 13:12:33;;;;;;;2.30;1.08;;;23.40;48.20;;;;;;20559302;28;20401;-76
2022/09/06 13:22:44;;;;;;;1.25;0.95;;;23.40;48.20;;;;;;20512053;28;20050;-79
2022/09/06 13:32:45;;;;;;;1.40;1.02;;;23.40;48.30;;;;;;20458114;28;20031;-74
2022/09/06 13:42:46;;;;;;;2.78;0.70;;;23.40;48.30;;;;;;20521357;28;20089;-74
2022/09/06 13:52:46;;;;;;;1.60;0.82;;;23.40;49.00;;;;;;20485155;28;20118;-76
2022/09/06 14:02:47;;;;;;;1.83;1.08;;;23.50;48.40;;;;;;20463169;29;20031;-76
2022/09/06 14:12:48;;;;;;;2.85;1.10;;;23.50;48.40;;;;;;20456431;28;20050;-76
2022/09/06 14:22:49;;;;;;;2.30;1.27;;;23.60;48.50;;;;;;20516202;28;20105;-77
2022/09/06 14:32:49;;;;;;;2.28;1.10;;;23.60;48.50;;;;;;20488622;29;20577;-77
2022/09/06 14:42:50;;;;;;;3.58;0.95;;;23.60;48.50;;;;;;20455567;29;20477;-76
2022/09/06 14:52:50;;;;;;;1.98;0.98;;;23.70;48.50;;;;;;20559447;28;20085;-76
2022/09/06 15:02:51;;;;;;;2.40;1.03;;;23.80;48.50;;;;;;20533762;28;20130;-77
2022/09/06 15:12:51;;;;;;;1.98;1.45;;;23.80;48.50;;;;;;20533191;28;20294;-78
2022/09/06 15:22:53;;;;;;;4.68;1.33;;;23.90;48.60;;;;;;20531873;28;20133;-76
2022/09/06 15:32:53;;;;;;;3.40;1.27;;;23.90;48.70;;;;;;20546206;28;20077;-74
2022/09/06 15:42:54;;;;;;;1.70;1.20;;;23.90;48.80;;;;;;20547161;28;20485;-79
2022/09/06 15:52:54;;;;;;;4.50;1.60;;;23.90;48.80;;;;;;20500408;28;20043;-78
2022/09/06 16:02:55;;;;;;;2.95;1.40;;;23.90;49.00;;;;;;20485218;28;20111;-78
2022/09/06 16:12:56;;;;;;;1.80;1.20;;;23.90;49.20;;;;;;20504188;28;20035;-78
2022/09/06 16:22:57;;;;;;;4.03;1.50;;;23.80;49.30;;;;;;20482512;29;20236;-79
2022/09/06 16:32:58;;;;;;;2.15;1.33;;;23.80;49.40;;;;;;20512270;28;20393;-74
2022/09/06 16:42:58;;;;;;;1.92;1.42;;;23.70;49.60;;;;;;20497373;29;20039;-71
2022/09/06 16:52:59;;;;;;;2.45;1.70;;;23.60;50.30;;;;;;20465027;29;20043;-73
2022/09/06 17:02:59;;;;;;;1.95;1.27;;;23.60;50.10;;;;;;20481617;28;20059;-73
2022/09/06 17:13:00;;;;;;;3.47;1.70;;;23.50;50.20;;;;;;20545255;28;20106;-74
2022/09/06 17:23:00;;;;;;;3.08;1.35;;;23.40;50.30;;;;;;20557924;28;20299;-71
2022/09/06 17:33:01;;;;;;;2.20;1.52;;;23.40;50.40;;;;;;20479008;29;20150;-71
2022/09/06 17:43:03;;;;;;;2.38;1.52;;;23.40;50.60;;;;;;20509836;29;20039;-72
2022/09/06 17:53:04;;;;;;;4.80;1.50;;;23.30;50.70;;;;;;20508409;29;20039;-73
2022/09/06 18:03:06;;;;;;;2.25;1.45;;;23.30;50.90;;;;;;20499842;28;20525;-72
2022/09/06 18:13:06;;;;;;;1.95;0.90;;;23.20;50.90;;;;;;20488795;28;20461;-72
2022/09/06 18:23:07;;;;;;;2.40;1.42;;;23.20;51.00;;;;;;20509362;28;20070;-74
2022/09/06 18:33:10;;;;;;;2.60;1.45;;;23.20;51.10;;;;;;20545475;28;20144;-71
2022/09/06 18:43:11;;;;;;;1.65;1.15;;;23.10;51.00;;;;;;20537240;28;20050;-70
2022/09/06 18:53:11;;;;;;;2.87;1.40;;;23.20;51.10;;;;;;20535938;28;20474;-70
2022/09/06 19:03:12;;;;;;;2.83;1.43;;;23.20;51.10;;;;;;20551021;28;20382;-70
2022/09/06 19:13:13;;;;;;;2.42;1.33;;;23.20;51.10;;;;;;20537031;28;20121;-70
2022/09/06 19:23:14;;;;;;;2.35;1.60;;;23.20;51.10;;;;;;20526117;28;20552;-71
2022/09/06 19:33:15;;;;;;;1.83;1.55;;;23.20;51.10;;;;;;20507289;28;20039;-70
2022/09/06 19:43:15;;;;;;;3.17;1.30;;;23.20;51.10;;;;;;20506178;28;20036;-69
2022/09/06 19:53:16;;;;;;;2.00;1.43;;;23.20;51.10;;;;;;20505393;28;20106;-71
2022/09/06 20:03:16;;;;;;;2.17;1.52;;;23.20;51.10;;;;;;20536807;28;20324;-70
2022/09/06 20:13:17;;;;;;;2.22;1.50;;;23.20;51.10;;;;;;20504223;28;20046;-70
2022/09/06 20:23:17;;;;;;;1.48;1.10;;;23.20;51.10;;;;;;20503315;28;20039;-69
2022/09/06 20:33:18;;;;;;;3.92;1.70;;;23.20;51.10;;;;;;20520199;28;20027;-69
2022/09/06 20:43:19;;;;;;;2.80;1.50;;;23.20;51.20;;;;;;20479147;28;20474;-70
2022/09/06 20:53:19;;;;;;;2.50;1.63;;;23.20;51.20;;;;;;20557472;28;20466;-71
2022/09/06 21:03:22;;;;;;;3.00;1.90;;;23.20;51.20;;;;;;20553538;28;20089;-71
2022/09/06 21:13:24;;;;;;;2.47;1.75;;;23.20;51.30;;;;;;20570785;28;20298;-70
2022/09/06 21:23:24;;;;;;;1.85;1.23;;;23.20;51.30;;;;;;20573545;28;20035;-70
2022/09/06 21:33:27;;;;;;;2.22;1.65;;;23.20;51.40;;;;;;20541174;28;20129;-70
2022/09/06 21:43:28;;;;;;;2.05;1.40;;;23.20;51.30;;;;;;20556078;28;20039;-70
2022/09/06 21:53:28;;;;;;;2.13;1.60;;;23.10;51.30;;;;;;20539276;28;20464;-69
2022/09/06 22:03:34;;;;;;;1.70;1.58;;;23.10;51.40;;;;;;20570387;28;20485;-70
2022/09/06 22:13:35;;;;;;;2.25;1.35;;;23.20;51.50;;;;;;20553808;28;20129;-69
2022/09/06 22:23:36;;;;;;;3.85;1.70;;;23.10;51.40;;;;;;20553091;28;20141;-69
2022/09/06 22:33:37;;;;;;;2.22;1.65;;;23.20;51.50;;;;;;20537119;28;20050;-69
2022/09/06 22:43:37;;;;;;;2.45;1.70;;;23.10;51.50;;;;;;20552798;28;20082;-70
2022/09/06 22:53:38;;;;;;;2.38;1.85;;;23.10;51.50;;;;;;20566768;28;20039;-70
2022/09/06 23:03:39;;;;;;;2.97;1.50;;;23.10;51.50;;;;;;20565912;28;20050;-69
2022/09/06 23:13:43;;;;;;;1.90;1.50;;;23.10;51.60;;;;;;20564400;28;20035;-71
2022/09/06 23:23:44;;;;;;;2.10;1.70;;;23.10;51.60;;;;;;20549260;28;20202;-70
2022/09/06 23:33:44;;;;;;;2.00;1.67;;;23.10;51.60;;;;;;20548611;28;20129;-70
2022/09/06 23:43:45;;;;;;;7.03;1.92;;;23.10;51.60;;;;;;20579887;28;20353;-70
2022/09/06 23:53:45;;;;;;;2.75;1.75;;;23.10;51.70;;;;;;20530835;28;20374;-69
